Prudhoe Bay, Alaska
Current Conditions -  °F | °C
As of 7:53 PM on Monday 26 Jan 2015 (Local Time) from PASC Reporting Station
Blowing Snow Blowing Snow  
Wind Chill: -56°   Ceiling: Unl
Heat Index: -27°   Visibility: 4mi
Dew Point: -34°   Wind: 17mph
Humidity: 69%   Direction: 260°W
Pressure: 30.19"   Gusts: NA
Location:  70.28°N, 148.38°W
Report Text: PASC 270453Z 26015KT 4SM BLSN FEW055 M33/M37 A3019 RMK AO2 SLP226 T13281367
Loading
Personal Weather Stations






























Interactive Weather Map New forecast layout! Learn more

10-Day Weather Forecast

Advertisements
Track Severe Weather on mobile